createdAt,value
2022-08-09T00:01:54.071Z,102212.31
2022-08-09T00:05:03.068Z,102212.34
2022-08-09T00:08:32.297Z,102218.19
2022-08-09T00:12:03.920Z,102213.19
2022-08-09T00:14:58.536Z,102219.84
2022-08-09T00:18:11.506Z,102209.84
2022-08-09T00:21:15.053Z,102223.19
2022-08-09T00:24:20.900Z,102217.03
2022-08-09T00:27:23.752Z,102215.09
2022-08-09T00:30:30.679Z,102214.28
2022-08-09T00:33:50.610Z,102215.41
2022-08-09T00:36:54.478Z,102213.75
2022-08-09T00:40:09.818Z,102210.44
2022-08-09T00:44:16.261Z,102209.59
2022-08-09T00:46:56.622Z,102205.72
2022-08-09T00:50:05.399Z,102209.31
2022-08-09T00:53:11.672Z,102204.28
2022-08-09T00:56:16.808Z,102200.97
2022-08-09T00:59:40.558Z,102198.44
2022-08-09T01:02:48.651Z,102205.66
2022-08-09T01:05:58.460Z,102209.00
2022-08-09T01:09:36.786Z,102206.75
2022-08-09T01:12:48.291Z,102204.28
2022-08-09T01:15:56.358Z,102211.53
2022-08-09T01:19:04.745Z,102216.28
2022-08-09T01:22:40.902Z,102207.66
2022-08-09T01:26:02.142Z,102206.53
2022-08-09T01:29:08.078Z,102204.88
2022-08-09T01:32:29.925Z,102201.81
2022-08-09T01:35:42.129Z,102211.84
2022-08-09T01:38:48.448Z,102211.28
2022-08-09T01:41:53.385Z,102213.78
2022-08-09T01:45:01.637Z,102220.75
2022-08-09T01:48:06.878Z,102223.56
2022-08-09T01:51:11.988Z,102212.97
2022-08-09T01:54:32.777Z,102212.41
2022-08-09T01:57:40.335Z,102212.72
2022-08-09T02:00:51.383Z,102207.16
2022-08-09T02:03:57.584Z,102216.31
2022-08-09T02:07:15.364Z,102211.88
2022-08-09T02:10:28.585Z,102209.63
2022-08-09T02:13:40.393Z,102212.94
2022-08-09T02:16:59.729Z,102206.56
2022-08-09T02:20:09.160Z,102212.13
2022-08-09T02:23:16.924Z,102216.00
2022-08-09T02:26:27.009Z,102217.94
2022-08-09T02:29:34.883Z,102221.56
2022-08-09T02:32:44.865Z,102218.78
2022-08-09T02:36:03.385Z,102216.56
2022-08-09T02:39:14.284Z,102216.56
2022-08-09T02:42:29.113Z,102213.78
2022-08-09T02:45:35.674Z,102216.28
2022-08-09T02:48:46.178Z,102221.84
2022-08-09T02:51:54.617Z,102220.72
2022-08-09T02:55:00.061Z,102212.94
2022-08-09T02:58:32.926Z,102214.06
2022-08-09T03:02:05.117Z,102215.72
2022-08-09T03:04:58.045Z,102214.34
2022-08-09T03:08:05.965Z,102227.13
2022-08-09T03:11:10.267Z,102226.28
2022-08-09T03:14:14.508Z,102223.53
2022-08-09T03:17:26.353Z,102219.63
2022-08-09T03:20:32.330Z,102221.28
2022-08-09T03:23:35.880Z,102218.22
2022-08-09T03:26:45.043Z,102224.34
2022-08-09T03:29:58.211Z,102223.53
2022-08-09T03:33:17.518Z,102221.88
2022-08-09T03:36:27.748Z,102226.31
2022-08-09T03:39:37.902Z,102226.31
2022-08-09T03:42:43.201Z,102229.94
2022-08-09T03:46:04.649Z,102234.66
2022-08-09T03:49:10.419Z,102231.28
2022-08-09T03:52:17.673Z,102231.56
2022-08-09T03:55:21.349Z,102234.91
2022-08-09T03:58:26.189Z,102239.91
2022-08-09T04:01:32.028Z,102243.81
2022-08-09T04:04:38.794Z,102245.78
2022-08-09T04:07:52.934Z,102242.72
2022-08-09T04:11:01.465Z,102244.66
2022-08-09T04:14:59.143Z,102251.88
2022-08-09T04:17:29.569Z,102254.09
2022-08-09T04:20:32.961Z,102258.00
2022-08-09T04:23:38.098Z,102269.69
2022-08-09T04:26:42.515Z,102268.56
2022-08-09T04:29:50.091Z,102272.75
2022-08-09T04:32:54.197Z,102272.47
2022-08-09T04:35:57.071Z,102272.47
2022-08-09T04:39:03.591Z,102274.69
2022-08-09T04:42:09.318Z,102265.50
2022-08-09T04:45:12.775Z,102274.72
2022-08-09T04:48:15.952Z,102269.97
2022-08-09T04:51:18.632Z,102280.22
2022-08-09T04:54:24.475Z,102284.69
2022-08-09T04:57:54.432Z,102287.22
2022-08-09T05:00:50.577Z,102287.47
2022-08-09T05:03:58.670Z,102293.31
2022-08-09T05:07:01.503Z,102292.53
2022-08-09T05:10:06.341Z,102292.53
2022-08-09T05:13:10.798Z,102290.88
2022-08-09T05:16:15.067Z,102291.44
2022-08-09T05:19:24.482Z,102301.44
2022-08-09T05:22:35.819Z,102306.44
2022-08-09T05:25:53.393Z,102305.06
2022-08-09T05:28:59.626Z,102304.50
2022-08-09T05:32:05.876Z,102307.00
2022-08-09T05:35:09.613Z,102312.00
2022-08-09T05:38:12.421Z,102309.25
2022-08-09T05:41:26.159Z,102317.03
2022-08-09T05:44:32.626Z,102326.22
2022-08-09T05:47:35.842Z,102314.78
2022-08-09T05:51:16.957Z,102317.84
2022-08-09T05:54:17.995Z,102323.13
2022-08-09T05:57:50.365Z,102321.72
2022-08-09T06:00:44.827Z,102321.44
2022-08-09T06:03:58.474Z,102324.47
2022-08-09T06:07:01.586Z,102326.97
2022-08-09T06:10:05.799Z,102328.88
2022-08-09T06:13:18.959Z,102328.59
2022-08-09T06:16:23.721Z,102323.75
2022-08-09T06:19:27.494Z,102332.63
2022-08-09T06:22:30.550Z,102323.13
2022-08-09T06:25:33.263Z,102329.28
2022-08-09T06:28:38.541Z,102332.56
2022-08-09T06:32:17.224Z,102339.47
2022-08-09T06:35:10.081Z,102339.09
2022-08-09T06:38:12.887Z,102344.09
2022-08-09T06:41:20.463Z,102349.84
2022-08-09T06:44:24.768Z,102342.66
2022-08-09T06:47:39.498Z,102350.06
2022-08-09T06:50:42.845Z,102349.34
2022-08-09T06:53:46.052Z,102347.66
2022-08-09T06:56:52.579Z,102360.22
2022-08-09T07:00:48.791Z,102354.66
2022-08-09T07:03:19.520Z,102358.13
2022-08-09T07:06:31.539Z,102353.88
2022-08-09T07:09:57.142Z,102354.63
2022-08-09T07:12:57.914Z,102365.38
2022-08-09T07:16:41.037Z,102360.41
2022-08-09T07:19:25.297Z,102368.72
2022-08-09T07:22:42.242Z,102372.78
2022-08-09T07:25:52.437Z,102367.69
2022-08-09T07:29:09.112Z,102366.16
2022-08-09T07:32:16.335Z,102372.47
2022-08-09T07:35:19.839Z,102377.91
2022-08-09T07:38:23.724Z,102373.38
2022-08-09T07:41:38.868Z,102370.66
2022-08-09T07:44:51.649Z,102373.94
2022-08-09T07:48:04.484Z,102364.56
2022-08-09T07:52:02.861Z,102359.69
2022-08-09T07:54:31.869Z,102360.97
2022-08-09T07:57:35.870Z,102361.16
2022-08-09T08:00:55.494Z,102369.09
2022-08-09T08:04:03.972Z,102369.56
2022-08-09T08:08:06.766Z,102367.94
2022-08-09T08:10:37.209Z,102370.34
2022-08-09T08:13:55.930Z,102364.78
2022-08-09T08:17:07.717Z,102373.47
2022-08-09T08:20:13.756Z,102366.00
2022-08-09T08:23:17.816Z,102362.31
2022-08-09T08:26:26.692Z,102361.72
2022-08-09T08:29:45.249Z,102359.91
2022-08-09T08:32:53.919Z,102351.38
2022-08-09T08:36:00.173Z,102360.16
2022-08-09T08:39:04.751Z,102357.13
2022-08-09T08:42:07.692Z,102356.97
2022-08-09T08:45:13.298Z,102356.69
2022-08-09T08:48:19.563Z,102354.84
2022-08-09T08:51:24.601Z,102357.59
2022-08-09T08:54:28.130Z,102368.00
2022-08-09T08:57:34.754Z,102358.25
2022-08-09T09:00:38.851Z,102354.97
2022-08-09T09:03:43.665Z,102353.41
2022-08-09T09:06:50.086Z,102351.88
2022-08-09T09:10:02.533Z,102359.00
2022-08-09T09:13:09.445Z,102349.41
2022-08-09T09:16:14.211Z,102359.34
2022-08-09T09:22:56.379Z,102352.03
2022-08-09T09:26:01.716Z,102356.88
2022-08-09T09:29:16.779Z,102359.28
2022-08-09T09:32:32.423Z,102350.91
2022-08-09T09:36:00.611Z,102354.28
2022-08-09T09:39:10.161Z,102353.56
2022-08-09T09:42:26.274Z,102343.03
2022-08-09T09:45:29.461Z,102349.63
2022-08-09T09:48:33.697Z,102344.41
2022-08-09T09:51:40.308Z,102345.72
2022-08-09T09:54:48.801Z,102338.28
2022-08-09T09:58:02.347Z,102343.56
2022-08-09T10:01:30.256Z,102337.97
2022-08-09T10:04:41.337Z,102339.94
2022-08-09T10:08:10.705Z,102333.16
2022-08-09T10:11:54.045Z,102330.97
2022-08-09T10:14:43.928Z,102331.31
2022-08-09T10:17:56.370Z,102322.78
2022-08-09T10:21:07.872Z,102326.13
2022-08-09T10:24:15.952Z,102313.22
2022-08-09T10:27:34.520Z,102325.06
2022-08-09T10:32:27.895Z,102319.19
2022-08-09T10:34:11.399Z,102323.53
2022-08-09T10:37:27.858Z,102325.47
2022-08-09T10:40:41.155Z,102315.47
2022-08-09T10:44:00.070Z,102324.25
2022-08-09T10:48:26.552Z,102320.72
2022-08-09T10:51:09.359Z,102318.81
2022-08-09T10:54:13.764Z,102307.16
2022-08-09T10:57:16.875Z,102310.63
2022-08-09T11:03:03.105Z,102303.56
2022-08-09T11:04:31.170Z,102306.91
2022-08-09T11:07:57.725Z,102306.06
2022-08-09T11:11:00.559Z,102301.31
2022-08-09T11:14:31.927Z,102299.06
2022-08-09T11:17:57.026Z,102305.03
2022-08-09T11:21:05.919Z,102305.16
2022-08-09T11:24:10.579Z,102305.31
2022-08-09T11:28:03.789Z,102294.56
2022-08-09T11:30:53.042Z,102299.50
2022-08-09T11:34:04.756Z,102302.75
2022-08-09T11:37:18.002Z,102296.31
2022-08-09T11:40:30.495Z,102295.34
2022-08-09T11:43:42.181Z,102307.81
2022-08-09T11:46:57.051Z,102291.13
2022-08-09T11:50:54.359Z,102299.91
2022-08-09T11:53:58.774Z,102298.22
2022-08-09T11:56:50.482Z,102305.03
2022-08-09T11:59:53.804Z,102302.91
2022-08-09T12:02:58.301Z,102299.03
2022-08-09T12:06:10.508Z,102295.22
2022-08-09T12:09:17.559Z,102299.59
2022-08-09T12:12:29.035Z,102289.84
2022-08-09T12:15:49.760Z,102284.44
2022-08-09T12:18:54.694Z,102288.16
2022-08-09T12:22:03.294Z,102289.19
2022-08-09T12:25:14.897Z,102275.69
2022-08-09T12:29:11.993Z,102273.75
2022-08-09T12:32:01.859Z,102279.47
2022-08-09T12:35:12.518Z,102288.94
2022-08-09T12:38:37.683Z,102280.44
2022-08-09T12:41:41.341Z,102272.63
2022-08-09T12:44:52.418Z,102265.41
2022-08-09T12:47:57.394Z,102270.38
2022-08-09T12:51:03.989Z,102272.09
2022-08-09T12:54:09.341Z,102263.50
2022-08-09T12:57:12.030Z,102264.81
2022-08-09T13:00:18.847Z,102253.19
2022-08-09T13:03:53.665Z,102257.47
2022-08-09T13:06:54.196Z,102258.19
2022-08-09T13:10:04.201Z,102249.31
2022-08-09T13:13:10.980Z,102253.75
2022-08-09T13:16:17.588Z,102251.78
2022-08-09T13:20:09.708Z,102238.94
2022-08-09T13:23:05.739Z,102242.50
2022-08-09T13:26:36.791Z,102238.09
2022-08-09T13:30:02.589Z,102240.56
2022-08-09T13:33:02.616Z,102231.91
2022-08-09T13:36:24.080Z,102247.13
2022-08-09T13:41:19.092Z,102246.00
2022-08-09T13:42:55.127Z,102242.34
2022-08-09T13:46:44.429Z,102246.00
2022-08-09T13:49:20.602Z,102244.81
2022-08-09T13:52:23.483Z,102256.25
2022-08-09T13:55:28.937Z,102245.59
2022-08-09T13:58:34.463Z,102252.94
2022-08-09T14:02:00.467Z,102242.78
2022-08-09T14:05:00.646Z,102239.34
2022-08-09T14:08:05.293Z,102243.72
2022-08-09T14:11:16.007Z,102241.94
2022-08-09T14:14:26.819Z,102235.56
2022-08-09T14:17:32.675Z,102227.72
2022-08-09T14:20:53.777Z,102227.69
2022-08-09T14:23:57.499Z,102229.53
2022-08-09T14:27:01.240Z,102234.78
2022-08-09T14:30:37.070Z,102228.03
2022-08-09T14:33:29.846Z,102233.91
2022-08-09T14:36:35.374Z,102236.53
2022-08-09T14:39:46.438Z,102232.97
2022-08-09T14:42:51.014Z,102228.97
2022-08-09T14:46:59.034Z,102233.09
2022-08-09T14:49:18.454Z,102231.00
2022-08-09T14:52:26.220Z,102229.69
2022-08-09T14:55:32.019Z,102232.63
2022-08-09T14:58:37.750Z,102222.38
2022-08-09T15:01:48.121Z,102228.38
2022-08-09T15:04:52.258Z,102234.16
2022-08-09T15:07:56.913Z,102233.78
2022-08-09T15:11:07.028Z,102235.13
2022-08-09T15:14:13.440Z,102237.63
2022-08-09T15:17:17.862Z,102235.16
2022-08-09T15:21:55.665Z,102236.88
2022-08-09T15:24:02.954Z,102231.72
2022-08-09T15:27:07.140Z,102225.19
2022-08-09T15:31:00.670Z,102231.63
2022-08-09T15:34:16.277Z,102234.22
2022-08-09T15:37:04.199Z,102226.13
2022-08-09T15:40:11.649Z,102228.00
2022-08-09T15:43:14.914Z,102214.84
2022-08-09T15:46:31.868Z,102219.81
2022-08-09T15:49:38.803Z,102220.03
2022-08-09T15:53:05.995Z,102224.44
2022-08-09T15:56:23.393Z,102223.06
2022-08-09T15:59:36.935Z,102223.69
2022-08-09T16:02:40.439Z,102228.75
2022-08-09T16:05:53.106Z,102220.16
2022-08-09T16:09:01.135Z,102216.53
2022-08-09T16:12:11.593Z,102213.00
2022-08-09T16:16:11.517Z,102221.50
2022-08-09T16:18:37.862Z,102214.09
2022-08-09T16:21:51.993Z,102217.84
2022-08-09T16:24:56.851Z,102218.09
2022-08-09T16:28:02.197Z,102215.34
2022-08-09T16:31:16.136Z,102213.63
2022-08-09T16:34:19.082Z,102215.34
2022-08-09T16:37:55.789Z,102212.84
2022-08-09T16:40:50.630Z,102203.94
2022-08-09T16:43:54.007Z,102203.53
2022-08-09T16:47:04.209Z,102205.88
2022-08-09T16:50:31.145Z,102205.53
2022-08-09T16:53:51.367Z,102197.75
2022-08-09T16:57:00.741Z,102205.06
2022-08-09T17:00:03.663Z,102205.88
2022-08-09T17:03:06.402Z,102212.53
2022-08-09T17:06:28.896Z,102213.00
2022-08-09T17:09:44.007Z,102217.50
2022-08-09T17:12:49.781Z,102216.84
2022-08-09T17:16:00.301Z,102223.91
2022-08-09T17:19:05.334Z,102219.59
2022-08-09T17:22:08.275Z,102234.63
2022-08-09T17:25:13.718Z,102231.97
2022-08-09T17:28:16.443Z,102231.81
2022-08-09T17:31:21.295Z,102226.00
2022-08-09T17:35:10.898Z,102235.09
2022-08-09T17:38:14.410Z,102237.38
2022-08-09T17:41:12.319Z,102235.53
2022-08-09T17:44:41.667Z,102238.28
2022-08-09T17:47:49.813Z,102241.41
2022-08-09T17:51:06.528Z,102242.69
2022-08-09T17:54:28.060Z,102251.88
2022-08-09T17:58:02.883Z,102252.91
2022-08-09T18:00:58.567Z,102249.59
2022-08-09T18:04:01.519Z,102259.09
2022-08-09T18:07:07.684Z,102264.16
2022-08-09T18:10:11.696Z,102262.75
2022-08-09T18:13:43.164Z,102260.41
2022-08-09T18:16:39.398Z,102264.06
2022-08-09T18:20:56.439Z,102265.56
2022-08-09T18:24:10.418Z,102274.22
2022-08-09T18:26:38.002Z,102278.84
2022-08-09T18:30:38.509Z,102278.84
2022-08-09T18:33:13.410Z,102286.09
2022-08-09T18:36:32.173Z,102280.31
2022-08-09T18:39:39.635Z,102285.25
2022-08-09T18:42:46.783Z,102289.28
2022-08-09T18:46:50.384Z,102292.09
2022-08-09T18:49:16.427Z,102292.31
2022-08-09T18:52:24.775Z,102295.75
2022-08-09T18:55:56.265Z,102301.47
2022-08-09T18:58:55.323Z,102297.94
2022-08-09T19:02:00.316Z,102303.56
2022-08-09T19:05:20.318Z,102309.72
2022-08-09T19:08:32.114Z,102313.63
2022-08-09T19:11:38.223Z,102317.06
2022-08-09T19:14:43.320Z,102320.47
2022-08-09T19:17:55.020Z,102323.59
2022-08-09T19:21:00.587Z,102322.31
2022-08-09T19:24:33.356Z,102313.56
2022-08-09T19:27:28.747Z,102317.28
2022-08-09T19:30:32.413Z,102327.41
2022-08-09T19:33:37.445Z,102331.81
2022-08-09T19:36:40.076Z,102331.06
2022-08-09T19:40:03.732Z,102330.25
2022-08-09T19:43:10.376Z,102342.53
2022-08-09T19:46:34.973Z,102339.06
2022-08-09T19:50:07.252Z,102343.34
2022-08-09T19:53:04.568Z,102342.34
2022-08-09T19:56:07.818Z,102336.53
2022-08-09T19:59:57.779Z,102345.16
2022-08-09T20:04:12.549Z,102349.19
2022-08-09T20:06:22.690Z,102350.47
2022-08-09T20:09:44.391Z,102350.88
2022-08-09T20:12:49.059Z,102354.84
2022-08-09T20:16:35.773Z,102352.97
2022-08-09T20:19:47.649Z,102351.63
2022-08-09T20:22:42.918Z,102350.94
2022-08-09T20:25:52.540Z,102342.16
2022-08-09T20:28:55.991Z,102348.47
2022-08-09T20:32:28.624Z,102342.13
2022-08-09T20:35:24.356Z,102349.75
2022-08-09T20:38:48.401Z,102344.44
2022-08-09T20:41:51.113Z,102350.59
2022-08-09T20:45:04.745Z,102344.03
2022-08-09T20:48:21.145Z,102354.06
2022-08-09T20:51:25.021Z,102348.53
2022-08-09T20:54:29.200Z,102353.88
2022-08-09T20:57:32.903Z,102358.84
2022-08-09T21:00:36.385Z,102353.28
2022-08-09T21:05:48.606Z,102364.50
2022-08-09T21:07:14.102Z,102369.88
2022-08-09T21:10:18.526Z,102377.34
2022-08-09T21:13:21.446Z,102366.06
2022-08-09T21:16:28.229Z,102372.75
2022-08-09T21:20:19.618Z,102380.94
2022-08-09T21:22:56.149Z,102381.78
2022-08-09T21:26:00.952Z,102386.25
2022-08-09T21:29:11.960Z,102388.22
2022-08-09T21:32:18.833Z,102391.34
2022-08-09T21:35:22.072Z,102392.50
2022-08-09T21:38:31.260Z,102393.63
2022-08-09T21:42:04.351Z,102399.25
2022-08-09T21:44:58.967Z,102389.81
2022-08-09T21:48:02.436Z,102393.72
2022-08-09T21:51:13.318Z,102387.31
2022-08-09T21:54:17.338Z,102393.44
2022-08-09T21:57:25.270Z,102396.81
2022-08-09T22:00:42.691Z,102391.56
2022-08-09T22:03:59.079Z,102392.41
2022-08-09T22:07:04.823Z,102391.03
2022-08-09T22:10:09.606Z,102390.78
2022-08-09T22:13:14.144Z,102398.88
2022-08-09T22:16:21.189Z,102394.94
2022-08-09T22:19:58.675Z,102396.94
2022-08-09T22:22:49.955Z,102389.69
2022-08-09T22:26:07.643Z,102391.94
2022-08-09T22:32:36.619Z,102394.69
2022-08-09T22:36:02.229Z,102395.81
2022-08-09T22:39:02.855Z,102391.63
2022-08-09T22:42:22.564Z,102400.56
2022-08-09T22:48:10.617Z,102391.63
2022-08-09T22:48:51.970Z,102401.38
2022-08-09T22:51:57.636Z,102397.22
2022-08-09T22:55:00.334Z,102393.31
2022-08-09T22:58:04.925Z,102393.03
2022-08-09T23:01:09.122Z,102396.63
2022-08-09T23:04:12.074Z,102396.34
2022-08-09T23:08:21.820Z,102392.44
2022-08-09T23:10:55.212Z,102396.63
2022-08-09T23:13:59.584Z,102399.13
2022-08-09T23:17:03.757Z,102399.97
2022-08-09T23:20:08.416Z,102395.50
2022-08-09T23:23:11.569Z,102399.09
2022-08-09T23:26:14.180Z,102405.22
2022-08-09T23:29:17.083Z,102398.81
2022-08-09T23:32:21.076Z,102393.25
2022-08-09T23:35:24.678Z,102391.59
2022-08-09T23:38:27.345Z,102392.13
2022-08-09T23:41:30.696Z,102397.13
2022-08-09T23:44:33.567Z,102398.19
2022-08-09T23:47:37.749Z,102386.22
2022-08-09T23:50:40.531Z,102399.00
2022-08-09T23:53:43.881Z,102388.94
2022-08-09T23:56:54.591Z,102402.84
